sensor_id;sensor_type;location;lat;lon;timestamp;P1;durP1;ratioP1;P2;durP2;ratioP2
40867;SDS011;26586;50.708;22.412;2023-02-01T00:00:22;4.93;;;3.08;;
40867;SDS011;26586;50.708;22.412;2023-02-01T00:03:08;6.97;;;3.03;;
40867;SDS011;26586;50.708;22.412;2023-02-01T00:05:34;4.87;;;2.97;;
40867;SDS011;26586;50.708;22.412;2023-02-01T00:08:00;4.68;;;2.95;;
40867;SDS011;26586;50.708;22.412;2023-02-01T00:10:26;4.88;;;3.03;;
40867;SDS011;26586;50.708;22.412;2023-02-01T00:12:52;5.25;;;2.42;;
40867;SDS011;26586;50.708;22.412;2023-02-01T00:15:19;5.25;;;2.92;;
40867;SDS011;26586;50.708;22.412;2023-02-01T00:17:45;5.32;;;2.75;;
40867;SDS011;26586;50.708;22.412;2023-02-01T00:20:12;3.80;;;2.17;;
40867;SDS011;26586;50.708;22.412;2023-02-01T00:22:38;5.60;;;3.10;;
40867;SDS011;26586;50.708;22.412;2023-02-01T00:25:04;5.53;;;2.83;;
40867;SDS011;26586;50.708;22.412;2023-02-01T00:27:31;4.68;;;2.97;;
40867;SDS011;26586;50.708;22.412;2023-02-01T00:29:57;5.88;;;2.75;;
40867;SDS011;26586;50.708;22.412;2023-02-01T00:32:23;5.47;;;2.92;;
40867;SDS011;26586;50.708;22.412;2023-02-01T00:34:49;6.63;;;3.23;;
40867;SDS011;26586;50.708;22.412;2023-02-01T00:37:16;3.72;;;2.53;;
40867;SDS011;26586;50.708;22.412;2023-02-01T00:39:42;11.23;;;7.55;;
40867;SDS011;26586;50.708;22.412;2023-02-01T00:42:08;4.47;;;3.08;;
40867;SDS011;26586;50.708;22.412;2023-02-01T00:44:35;3.83;;;2.25;;
40867;SDS011;26586;50.708;22.412;2023-02-01T00:47:01;4.10;;;2.50;;
40867;SDS011;26586;50.708;22.412;2023-02-01T00:49:27;4.30;;;2.70;;
40867;SDS011;26586;50.708;22.412;2023-02-01T00:51:54;5.13;;;2.53;;
40867;SDS011;26586;50.708;22.412;2023-02-01T00:54:20;3.60;;;1.80;;
40867;SDS011;26586;50.708;22.412;2023-02-01T00:56:46;7.38;;;3.05;;
40867;SDS011;26586;50.708;22.412;2023-02-01T00:59:13;4.22;;;2.30;;
40867;SDS011;26586;50.708;22.412;2023-02-01T01:01:39;5.85;;;3.55;;
40867;SDS011;26586;50.708;22.412;2023-02-01T01:04:06;4.40;;;2.40;;
40867;SDS011;26586;50.708;22.412;2023-02-01T01:06:32;5.70;;;2.45;;
40867;SDS011;26586;50.708;22.412;2023-02-01T01:09:00;4.40;;;2.28;;
40867;SDS011;26586;50.708;22.412;2023-02-01T01:11:30;3.17;;;2.20;;
40867;SDS011;26586;50.708;22.412;2023-02-01T01:13:58;5.00;;;2.47;;
40867;SDS011;26586;50.708;22.412;2023-02-01T01:16:25;3.55;;;1.98;;
40867;SDS011;26586;50.708;22.412;2023-02-01T01:18:54;3.45;;;2.20;;
40867;SDS011;26586;50.708;22.412;2023-02-01T01:21:21;4.68;;;2.42;;
40867;SDS011;26586;50.708;22.412;2023-02-01T01:23:47;3.92;;;2.25;;
40867;SDS011;26586;50.708;22.412;2023-02-01T01:26:14;5.70;;;2.45;;
40867;SDS011;26586;50.708;22.412;2023-02-01T01:28:43;4.60;;;2.17;;
40867;SDS011;26586;50.708;22.412;2023-02-01T01:31:10;4.50;;;2.47;;
40867;SDS011;26586;50.708;22.412;2023-02-01T01:33:38;3.05;;;1.98;;
40867;SDS011;26586;50.708;22.412;2023-02-01T01:36:05;3.80;;;2.07;;
40867;SDS011;26586;50.708;22.412;2023-02-01T01:38:32;4.55;;;2.72;;
40867;SDS011;26586;50.708;22.412;2023-02-01T01:41:00;3.45;;;2.10;;
40867;SDS011;26586;50.708;22.412;2023-02-01T01:43:44;4.13;;;2.00;;
40867;SDS011;26586;50.708;22.412;2023-02-01T01:46:21;5.68;;;2.33;;
40867;SDS011;26586;50.708;22.412;2023-02-01T01:49:12;5.47;;;2.42;;
40867;SDS011;26586;50.708;22.412;2023-02-01T01:51:47;3.88;;;2.55;;
40867;SDS011;26586;50.708;22.412;2023-02-01T01:54:17;2.72;;;1.90;;
40867;SDS011;26586;50.708;22.412;2023-02-01T01:56:57;4.65;;;2.10;;
40867;SDS011;26586;50.708;22.412;2023-02-01T01:59:29;5.15;;;2.05;;
40867;SDS011;26586;50.708;22.412;2023-02-01T02:01:56;4.10;;;2.40;;
40867;SDS011;26586;50.708;22.412;2023-02-01T02:04:23;3.75;;;2.33;;
40867;SDS011;26586;50.708;22.412;2023-02-01T02:06:52;4.80;;;2.90;;
40867;SDS011;26586;50.708;22.412;2023-02-01T02:09:22;5.20;;;2.67;;
40867;SDS011;26586;50.708;22.412;2023-02-01T02:11:48;4.00;;;2.58;;
40867;SDS011;26586;50.708;22.412;2023-02-01T02:14:15;3.42;;;1.83;;
40867;SDS011;26586;50.708;22.412;2023-02-01T02:26:16;3.22;;;1.95;;
40867;SDS011;26586;50.708;22.412;2023-02-01T02:34:45;3.25;;;1.88;;
40867;SDS011;26586;50.708;22.412;2023-02-01T02:42:43;3.17;;;1.90;;
40867;SDS011;26586;50.708;22.412;2023-02-01T02:45:54;3.17;;;1.70;;
40867;SDS011;26586;50.708;22.412;2023-02-01T02:48:56;2.75;;;1.40;;
40867;SDS011;26586;50.708;22.412;2023-02-01T02:51:32;3.28;;;1.48;;
40867;SDS011;26586;50.708;22.412;2023-02-01T02:54:25;3.53;;;1.65;;
40867;SDS011;26586;50.708;22.412;2023-02-01T02:57:13;3.30;;;1.50;;
40867;SDS011;26586;50.708;22.412;2023-02-01T03:00:08;4.05;;;1.65;;
40867;SDS011;26586;50.708;22.412;2023-02-01T03:02:59;2.70;;;1.83;;
40867;SDS011;26586;50.708;22.412;2023-02-01T03:05:45;8.27;;;7.03;;
40867;SDS011;26586;50.708;22.412;2023-02-01T03:08:19;3.22;;;2.40;;
40867;SDS011;26586;50.708;22.412;2023-02-01T03:10:48;7.25;;;4.95;;
40867;SDS011;26586;50.708;22.412;2023-02-01T03:16:19;4.32;;;3.00;;
40867;SDS011;26586;50.708;22.412;2023-02-01T03:19:02;4.22;;;2.08;;
40867;SDS011;26586;50.708;22.412;2023-02-01T03:21:40;3.47;;;1.70;;
40867;SDS011;26586;50.708;22.412;2023-02-01T03:24:27;5.53;;;3.47;;
40867;SDS011;26586;50.708;22.412;2023-02-01T03:27:01;3.75;;;1.65;;
40867;SDS011;26586;50.708;22.412;2023-02-01T03:29:40;7.75;;;4.72;;
40867;SDS011;26586;50.708;22.412;2023-02-01T03:32:12;4.20;;;2.10;;
40867;SDS011;26586;50.708;22.412;2023-02-01T03:34:38;4.10;;;2.47;;
40867;SDS011;26586;50.708;22.412;2023-02-01T03:37:06;8.93;;;3.83;;
40867;SDS011;26586;50.708;22.412;2023-02-01T03:42:20;3.33;;;1.90;;
40867;SDS011;26586;50.708;22.412;2023-02-01T03:44:57;4.95;;;3.20;;
40867;SDS011;26586;50.708;22.412;2023-02-01T03:47:29;4.03;;;1.70;;
40867;SDS011;26586;50.708;22.412;2023-02-01T03:50:00;4.57;;;2.83;;
40867;SDS011;26586;50.708;22.412;2023-02-01T03:52:33;6.22;;;3.83;;
40867;SDS011;26586;50.708;22.412;2023-02-01T03:55:07;3.10;;;1.70;;
40867;SDS011;26586;50.708;22.412;2023-02-01T03:57:36;3.47;;;1.05;;
40867;SDS011;26586;50.708;22.412;2023-02-01T04:00:15;3.08;;;1.08;;
40867;SDS011;26586;50.708;22.412;2023-02-01T04:02:47;1.63;;;0.75;;
40867;SDS011;26586;50.708;22.412;2023-02-01T04:05:14;3.80;;;1.50;;
40867;SDS011;26586;50.708;22.412;2023-02-01T04:07:41;3.25;;;1.13;;
40867;SDS011;26586;50.708;22.412;2023-02-01T04:10:07;2.75;;;1.33;;
40867;SDS011;26586;50.708;22.412;2023-02-01T04:12:35;3.03;;;1.08;;
40867;SDS011;26586;50.708;22.412;2023-02-01T04:15:01;1.75;;;0.60;;
40867;SDS011;26586;50.708;22.412;2023-02-01T04:17:29;3.80;;;1.00;;
40867;SDS011;26586;50.708;22.412;2023-02-01T04:19:55;1.17;;;0.60;;
40867;SDS011;26586;50.708;22.412;2023-02-01T04:22:21;3.70;;;0.98;;
40867;SDS011;26586;50.708;22.412;2023-02-01T04:24:48;2.65;;;0.60;;
40867;SDS011;26586;50.708;22.412;2023-02-01T04:27:14;3.67;;;0.80;;
40867;SDS011;26586;50.708;22.412;2023-02-01T04:29:41;3.53;;;0.47;;
40867;SDS011;26586;50.708;22.412;2023-02-01T04:32:07;1.17;;;0.38;;
40867;SDS011;26586;50.708;22.412;2023-02-01T04:34:33;4.47;;;0.68;;
40867;SDS011;26586;50.708;22.412;2023-02-01T04:37:00;1.40;;;0.53;;
40867;SDS011;26586;50.708;22.412;2023-02-01T04:39:26;2.70;;;0.80;;
40867;SDS011;26586;50.708;22.412;2023-02-01T04:41:52;2.27;;;0.63;;
40867;SDS011;26586;50.708;22.412;2023-02-01T04:44:18;4.93;;;0.85;;
40867;SDS011;26586;50.708;22.412;2023-02-01T04:46:45;2.20;;;0.43;;
40867;SDS011;26586;50.708;22.412;2023-02-01T04:49:13;1.17;;;0.55;;
40867;SDS011;26586;50.708;22.412;2023-02-01T04:54:06;1.98;;;0.70;;
40867;SDS011;26586;50.708;22.412;2023-02-01T04:56:34;1.77;;;0.40;;
40867;SDS011;26586;50.708;22.412;2023-02-01T04:59:00;1.95;;;0.50;;
40867;SDS011;26586;50.708;22.412;2023-02-01T05:01:29;3.90;;;0.55;;
40867;SDS011;26586;50.708;22.412;2023-02-01T05:03:55;2.08;;;0.77;;
40867;SDS011;26586;50.708;22.412;2023-02-01T05:06:22;1.40;;;0.57;;
40867;SDS011;26586;50.708;22.412;2023-02-01T05:08:48;4.07;;;0.75;;
40867;SDS011;26586;50.708;22.412;2023-02-01T05:11:15;2.80;;;0.50;;
40867;SDS011;26586;50.708;22.412;2023-02-01T05:14:01;3.10;;;0.40;;
40867;SDS011;26586;50.708;22.412;2023-02-01T05:16:27;2.33;;;0.40;;
40867;SDS011;26586;50.708;22.412;2023-02-01T05:18:53;3.47;;;0.70;;
40867;SDS011;26586;50.708;22.412;2023-02-01T05:21:20;4.05;;;0.63;;
40867;SDS011;26586;50.708;22.412;2023-02-01T05:23:46;2.95;;;1.27;;
40867;SDS011;26586;50.708;22.412;2023-02-01T05:26:31;2.70;;;0.50;;
40867;SDS011;26586;50.708;22.412;2023-02-01T05:28:57;3.50;;;0.88;;
40867;SDS011;26586;50.708;22.412;2023-02-01T05:31:23;2.13;;;0.50;;
40867;SDS011;26586;50.708;22.412;2023-02-01T05:33:50;4.65;;;0.93;;
40867;SDS011;26586;50.708;22.412;2023-02-01T05:36:16;4.65;;;0.88;;
40867;SDS011;26586;50.708;22.412;2023-02-01T05:38:43;3.70;;;0.93;;
40867;SDS011;26586;50.708;22.412;2023-02-01T05:41:09;2.93;;;0.67;;
40867;SDS011;26586;50.708;22.412;2023-02-01T05:43:35;4.93;;;1.08;;
40867;SDS011;26586;50.708;22.412;2023-02-01T05:46:01;2.53;;;1.27;;
40867;SDS011;26586;50.708;22.412;2023-02-01T05:48:28;3.20;;;0.75;;
40867;SDS011;26586;50.708;22.412;2023-02-01T05:50:54;2.87;;;1.00;;
40867;SDS011;26586;50.708;22.412;2023-02-01T05:53:20;6.38;;;0.95;;
40867;SDS011;26586;50.708;22.412;2023-02-01T05:55:47;4.13;;;0.60;;
40867;SDS011;26586;50.708;22.412;2023-02-01T05:58:13;1.48;;;0.50;;
40867;SDS011;26586;50.708;22.412;2023-02-01T06:00:39;2.97;;;0.73;;
40867;SDS011;26586;50.708;22.412;2023-02-01T06:03:06;2.22;;;0.65;;
40867;SDS011;26586;50.708;22.412;2023-02-01T06:05:33;1.73;;;0.93;;
40867;SDS011;26586;50.708;22.412;2023-02-01T06:07:59;2.13;;;0.70;;
40867;SDS011;26586;50.708;22.412;2023-02-01T06:10:25;3.10;;;0.98;;
40867;SDS011;26586;50.708;22.412;2023-02-01T06:12:51;3.88;;;0.47;;
40867;SDS011;26586;50.708;22.412;2023-02-01T06:15:18;5.18;;;1.45;;
40867;SDS011;26586;50.708;22.412;2023-02-01T06:17:44;3.33;;;0.80;;
40867;SDS011;26586;50.708;22.412;2023-02-01T06:22:38;5.03;;;1.15;;
40867;SDS011;26586;50.708;22.412;2023-02-01T06:25:06;3.70;;;1.27;;
40867;SDS011;26586;50.708;22.412;2023-02-01T06:27:35;2.67;;;0.70;;
40867;SDS011;26586;50.708;22.412;2023-02-01T06:30:03;3.67;;;0.88;;
40867;SDS011;26586;50.708;22.412;2023-02-01T06:32:30;4.32;;;1.15;;
40867;SDS011;26586;50.708;22.412;2023-02-01T06:34:56;3.13;;;1.03;;
40867;SDS011;26586;50.708;22.412;2023-02-01T06:37:23;5.95;;;1.15;;
40867;SDS011;26586;50.708;22.412;2023-02-01T06:39:50;3.67;;;1.15;;
40867;SDS011;26586;50.708;22.412;2023-02-01T06:42:17;5.55;;;1.48;;
40867;SDS011;26586;50.708;22.412;2023-02-01T06:44:43;2.50;;;1.10;;
40867;SDS011;26586;50.708;22.412;2023-02-01T06:47:09;3.90;;;1.33;;
40867;SDS011;26586;50.708;22.412;2023-02-01T06:49:35;5.53;;;1.27;;
40867;SDS011;26586;50.708;22.412;2023-02-01T06:52:04;4.60;;;2.40;;
40867;SDS011;26586;50.708;22.412;2023-02-01T06:54:31;5.40;;;1.80;;
40867;SDS011;26586;50.708;22.412;2023-02-01T06:56:59;3.40;;;1.70;;
40867;SDS011;26586;50.708;22.412;2023-02-01T06:59:25;4.65;;;1.60;;
40867;SDS011;26586;50.708;22.412;2023-02-01T07:01:51;5.80;;;2.00;;
40867;SDS011;26586;50.708;22.412;2023-02-01T07:04:18;3.63;;;1.50;;
40867;SDS011;26586;50.708;22.412;2023-02-01T07:06:44;4.00;;;1.40;;
40867;SDS011;26586;50.708;22.412;2023-02-01T07:09:10;8.82;;;3.40;;
40867;SDS011;26586;50.708;22.412;2023-02-01T07:11:37;10.68;;;5.47;;
40867;SDS011;26586;50.708;22.412;2023-02-01T07:14:06;12.80;;;6.03;;
40867;SDS011;26586;50.708;22.412;2023-02-01T07:16:32;7.15;;;3.20;;
40867;SDS011;26586;50.708;22.412;2023-02-01T07:18:59;4.83;;;1.77;;
40867;SDS011;26586;50.708;22.412;2023-02-01T07:21:25;5.47;;;1.85;;
40867;SDS011;26586;50.708;22.412;2023-02-01T07:23:54;4.22;;;1.77;;
40867;SDS011;26586;50.708;22.412;2023-02-01T07:26:20;6.95;;;2.30;;
40867;SDS011;26586;50.708;22.412;2023-02-01T07:28:47;8.30;;;2.95;;
40867;SDS011;26586;50.708;22.412;2023-02-01T07:31:14;18.98;;;9.38;;
40867;SDS011;26586;50.708;22.412;2023-02-01T07:33:44;7.43;;;4.07;;
40867;SDS011;26586;50.708;22.412;2023-02-01T07:36:14;13.43;;;6.70;;
40867;SDS011;26586;50.708;22.412;2023-02-01T07:38:42;11.48;;;6.47;;
40867;SDS011;26586;50.708;22.412;2023-02-01T07:41:09;5.97;;;2.65;;
40867;SDS011;26586;50.708;22.412;2023-02-01T07:43:36;8.77;;;3.30;;
40867;SDS011;26586;50.708;22.412;2023-02-01T07:46:02;9.97;;;3.37;;
40867;SDS011;26586;50.708;22.412;2023-02-01T07:48:31;11.95;;;5.78;;
40867;SDS011;26586;50.708;22.412;2023-02-01T07:51:01;9.13;;;3.63;;
40867;SDS011;26586;50.708;22.412;2023-02-01T07:53:29;9.77;;;4.38;;
40867;SDS011;26586;50.708;22.412;2023-02-01T07:55:57;24.75;;;12.75;;
40867;SDS011;26586;50.708;22.412;2023-02-01T07:58:24;11.65;;;5.15;;
40867;SDS011;26586;50.708;22.412;2023-02-01T08:00:50;26.60;;;13.38;;
40867;SDS011;26586;50.708;22.412;2023-02-01T08:03:35;19.48;;;9.40;;
40867;SDS011;26586;50.708;22.412;2023-02-01T08:06:02;24.95;;;12.18;;
40867;SDS011;26586;50.708;22.412;2023-02-01T08:08:28;15.55;;;8.55;;
40867;SDS011;26586;50.708;22.412;2023-02-01T08:10:58;12.45;;;7.15;;
40867;SDS011;26586;50.708;22.412;2023-02-01T08:13:26;11.30;;;5.35;;
40867;SDS011;26586;50.708;22.412;2023-02-01T08:15:52;8.23;;;4.47;;
40867;SDS011;26586;50.708;22.412;2023-02-01T08:18:22;11.88;;;6.70;;
40867;SDS011;26586;50.708;22.412;2023-02-01T08:20:48;8.07;;;4.93;;
40867;SDS011;26586;50.708;22.412;2023-02-01T08:23:15;10.17;;;5.17;;
40867;SDS011;26586;50.708;22.412;2023-02-01T08:25:41;8.25;;;4.45;;
40867;SDS011;26586;50.708;22.412;2023-02-01T08:28:07;10.83;;;3.93;;
40867;SDS011;26586;50.708;22.412;2023-02-01T08:30:35;14.00;;;7.97;;
40867;SDS011;26586;50.708;22.412;2023-02-01T08:33:04;36.30;;;19.48;;
40867;SDS011;26586;50.708;22.412;2023-02-01T08:35:32;13.50;;;7.40;;
40867;SDS011;26586;50.708;22.412;2023-02-01T08:38:00;17.83;;;6.18;;
40867;SDS011;26586;50.708;22.412;2023-02-01T08:40:26;10.95;;;5.05;;
40867;SDS011;26586;50.708;22.412;2023-02-01T08:42:53;14.88;;;5.78;;
40867;SDS011;26586;50.708;22.412;2023-02-01T08:45:24;9.65;;;3.10;;
40867;SDS011;26586;50.708;22.412;2023-02-01T08:47:52;10.02;;;4.85;;
40867;SDS011;26586;50.708;22.412;2023-02-01T08:50:19;13.20;;;4.80;;
40867;SDS011;26586;50.708;22.412;2023-02-01T08:52:47;15.95;;;6.18;;
40867;SDS011;26586;50.708;22.412;2023-02-01T08:55:13;12.25;;;6.38;;
40867;SDS011;26586;50.708;22.412;2023-02-01T08:57:40;12.50;;;5.25;;
40867;SDS011;26586;50.708;22.412;2023-02-01T09:00:08;5.57;;;3.50;;
40867;SDS011;26586;50.708;22.412;2023-02-01T09:02:36;8.18;;;3.30;;
40867;SDS011;26586;50.708;22.412;2023-02-01T09:05:03;17.50;;;9.80;;
40867;SDS011;26586;50.708;22.412;2023-02-01T09:09:56;9.70;;;5.18;;
40867;SDS011;26586;50.708;22.412;2023-02-01T09:12:30;8.15;;;4.57;;
40867;SDS011;26586;50.708;22.412;2023-02-01T09:14:58;4.72;;;2.42;;
40867;SDS011;26586;50.708;22.412;2023-02-01T09:17:26;5.70;;;2.40;;
40867;SDS011;26586;50.708;22.412;2023-02-01T09:19:52;6.43;;;3.20;;
40867;SDS011;26586;50.708;22.412;2023-02-01T09:22:19;6.50;;;2.60;;
40867;SDS011;26586;50.708;22.412;2023-02-01T09:24:45;5.47;;;3.05;;
40867;SDS011;26586;50.708;22.412;2023-02-01T09:27:12;5.23;;;2.10;;
40867;SDS011;26586;50.708;22.412;2023-02-01T09:29:38;4.75;;;1.90;;
40867;SDS011;26586;50.708;22.412;2023-02-01T09:32:04;6.00;;;2.47;;
40867;SDS011;26586;50.708;22.412;2023-02-01T09:34:34;9.93;;;2.90;;
40867;SDS011;26586;50.708;22.412;2023-02-01T09:37:01;7.55;;;2.95;;
40867;SDS011;26586;50.708;22.412;2023-02-01T09:39:27;6.93;;;2.35;;
40867;SDS011;26586;50.708;22.412;2023-02-01T09:45:17;10.07;;;4.72;;
40867;SDS011;26586;50.708;22.412;2023-02-01T09:47:51;12.35;;;4.22;;
40867;SDS011;26586;50.708;22.412;2023-02-01T09:50:33;9.65;;;3.67;;
40867;SDS011;26586;50.708;22.412;2023-02-01T09:55:49;8.32;;;2.75;;
40867;SDS011;26586;50.708;22.412;2023-02-01T09:58:20;3.13;;;1.30;;
40867;SDS011;26586;50.708;22.412;2023-02-01T10:00:58;6.68;;;1.92;;
40867;SDS011;26586;50.708;22.412;2023-02-01T10:03:27;7.15;;;2.42;;
40867;SDS011;26586;50.708;22.412;2023-02-01T10:22:29;7.13;;;1.95;;
40867;SDS011;26586;50.708;22.412;2023-02-01T10:28:11;7.28;;;2.22;;
40867;SDS011;26586;50.708;22.412;2023-02-01T10:30:43;9.63;;;3.70;;
40867;SDS011;26586;50.708;22.412;2023-02-01T10:33:19;5.45;;;1.67;;
40867;SDS011;26586;50.708;22.412;2023-02-01T10:36:12;5.15;;;1.95;;
40867;SDS011;26586;50.708;22.412;2023-02-01T10:38:44;6.75;;;2.88;;
40867;SDS011;26586;50.708;22.412;2023-02-01T10:43:40;3.70;;;1.48;;
40867;SDS011;26586;50.708;22.412;2023-02-01T10:48:33;3.97;;;2.13;;
40867;SDS011;26586;50.708;22.412;2023-02-01T10:51:08;7.22;;;3.15;;
40867;SDS011;26586;50.708;22.412;2023-02-01T10:54:00;8.52;;;2.40;;
40867;SDS011;26586;50.708;22.412;2023-02-01T10:56:31;5.13;;;1.90;;
40867;SDS011;26586;50.708;22.412;2023-02-01T10:59:01;4.45;;;1.90;;
40867;SDS011;26586;50.708;22.412;2023-02-01T11:01:37;4.68;;;2.28;;
40867;SDS011;26586;50.708;22.412;2023-02-01T11:06:49;10.93;;;4.85;;
40867;SDS011;26586;50.708;22.412;2023-02-01T11:09:40;22.45;;;9.02;;
40867;SDS011;26586;50.708;22.412;2023-02-01T11:12:20;23.38;;;8.00;;
40867;SDS011;26586;50.708;22.412;2023-02-01T11:17:44;10.43;;;4.35;;
40867;SDS011;26586;50.708;22.412;2023-02-01T11:20:16;8.70;;;3.88;;
40867;SDS011;26586;50.708;22.412;2023-02-01T11:22:45;9.80;;;4.85;;
40867;SDS011;26586;50.708;22.412;2023-02-01T11:25:21;6.93;;;3.10;;
40867;SDS011;26586;50.708;22.412;2023-02-01T11:27:49;13.05;;;4.90;;
40867;SDS011;26586;50.708;22.412;2023-02-01T11:30:17;10.05;;;3.33;;
40867;SDS011;26586;50.708;22.412;2023-02-01T11:32:52;10.60;;;4.80;;
40867;SDS011;26586;50.708;22.412;2023-02-01T11:35:19;7.47;;;3.42;;
40867;SDS011;26586;50.708;22.412;2023-02-01T11:37:55;7.32;;;2.60;;
40867;SDS011;26586;50.708;22.412;2023-02-01T11:40:27;7.10;;;2.28;;
40867;SDS011;26586;50.708;22.412;2023-02-01T11:45:38;13.50;;;6.88;;
40867;SDS011;26586;50.708;22.412;2023-02-01T11:48:15;8.57;;;2.78;;
40867;SDS011;26586;50.708;22.412;2023-02-01T11:56:07;8.65;;;3.78;;
40867;SDS011;26586;50.708;22.412;2023-02-01T12:07:04;7.38;;;3.33;;
40867;SDS011;26586;50.708;22.412;2023-02-01T12:12:25;4.43;;;2.20;;
40867;SDS011;26586;50.708;22.412;2023-02-01T12:15:27;7.90;;;2.58;;
40867;SDS011;26586;50.708;22.412;2023-02-01T12:18:22;12.35;;;6.40;;
40867;SDS011;26586;50.708;22.412;2023-02-01T12:35:28;15.77;;;7.97;;
40867;SDS011;26586;50.708;22.412;2023-02-01T12:41:03;8.20;;;3.42;;
40867;SDS011;26586;50.708;22.412;2023-02-01T12:48:55;5.38;;;2.45;;
40867;SDS011;26586;50.708;22.412;2023-02-01T12:51:39;7.10;;;2.42;;
40867;SDS011;26586;50.708;22.412;2023-02-01T12:56:57;7.90;;;3.67;;
40867;SDS011;26586;50.708;22.412;2023-02-01T12:59:46;7.75;;;3.03;;
40867;SDS011;26586;50.708;22.412;2023-02-01T13:02:22;7.43;;;2.97;;
40867;SDS011;26586;50.708;22.412;2023-02-01T13:05:16;10.38;;;4.80;;
40867;SDS011;26586;50.708;22.412;2023-02-01T13:07:46;10.35;;;4.38;;
40867;SDS011;26586;50.708;22.412;2023-02-01T13:10:31;7.75;;;3.70;;
40867;SDS011;26586;50.708;22.412;2023-02-01T13:13:19;17.90;;;6.18;;
40867;SDS011;26586;50.708;22.412;2023-02-01T13:18:35;7.20;;;3.95;;
40867;SDS011;26586;50.708;22.412;2023-02-01T13:21:22;6.45;;;3.03;;
40867;SDS011;26586;50.708;22.412;2023-02-01T13:23:51;8.45;;;2.75;;
40867;SDS011;26586;50.708;22.412;2023-02-01T13:26:19;9.45;;;3.92;;
40867;SDS011;26586;50.708;22.412;2023-02-01T13:39:17;10.57;;;5.80;;
40867;SDS011;26586;50.708;22.412;2023-02-01T13:42:01;8.95;;;3.75;;
40867;SDS011;26586;50.708;22.412;2023-02-01T13:44:40;14.38;;;6.13;;
40867;SDS011;26586;50.708;22.412;2023-02-01T13:47:17;10.55;;;4.07;;
40867;SDS011;26586;50.708;22.412;2023-02-01T13:50:41;7.10;;;3.17;;
40867;SDS011;26586;50.708;22.412;2023-02-01T13:52:58;9.60;;;3.80;;
40867;SDS011;26586;50.708;22.412;2023-02-01T13:55:34;12.18;;;6.20;;
40867;SDS011;26586;50.708;22.412;2023-02-01T13:58:04;28.08;;;13.00;;
40867;SDS011;26586;50.708;22.412;2023-02-01T14:00:38;11.43;;;6.65;;
40867;SDS011;26586;50.708;22.412;2023-02-01T14:21:13;17.63;;;8.52;;
40867;SDS011;26586;50.708;22.412;2023-02-01T14:34:20;13.75;;;7.57;;
40867;SDS011;26586;50.708;22.412;2023-02-01T14:36:49;18.02;;;9.23;;
40867;SDS011;26586;50.708;22.412;2023-02-01T14:39:28;12.90;;;7.93;;
40867;SDS011;26586;50.708;22.412;2023-02-01T14:42:30;19.55;;;9.82;;
40867;SDS011;26586;50.708;22.412;2023-02-01T14:47:51;38.55;;;16.58;;
40867;SDS011;26586;50.708;22.412;2023-02-01T14:50:25;20.13;;;9.75;;
40867;SDS011;26586;50.708;22.412;2023-02-01T14:58:52;26.92;;;17.70;;
40867;SDS011;26586;50.708;22.412;2023-02-01T15:01:24;22.60;;;11.82;;
40867;SDS011;26586;50.708;22.412;2023-02-01T15:06:39;23.33;;;12.07;;
40867;SDS011;26586;50.708;22.412;2023-02-01T15:09:17;23.05;;;13.70;;
40867;SDS011;26586;50.708;22.412;2023-02-01T15:11:54;22.50;;;11.77;;
40867;SDS011;26586;50.708;22.412;2023-02-01T15:14:22;46.00;;;21.55;;
40867;SDS011;26586;50.708;22.412;2023-02-01T15:16:49;109.53;;;45.75;;
40867;SDS011;26586;50.708;22.412;2023-02-01T15:19:19;91.03;;;42.92;;
40867;SDS011;26586;50.708;22.412;2023-02-01T15:21:52;50.05;;;30.55;;
40867;SDS011;26586;50.708;22.412;2023-02-01T15:24:27;26.63;;;17.13;;
40867;SDS011;26586;50.708;22.412;2023-02-01T15:26:56;13.27;;;6.93;;
40867;SDS011;26586;50.708;22.412;2023-02-01T15:29:29;15.98;;;6.82;;
40867;SDS011;26586;50.708;22.412;2023-02-01T15:31:58;16.17;;;8.98;;
40867;SDS011;26586;50.708;22.412;2023-02-01T15:34:48;55.22;;;24.02;;
40867;SDS011;26586;50.708;22.412;2023-02-01T15:37:16;20.92;;;10.68;;
40867;SDS011;26586;50.708;22.412;2023-02-01T15:45:25;29.08;;;12.20;;
40867;SDS011;26586;50.708;22.412;2023-02-01T15:47:54;37.13;;;14.55;;
40867;SDS011;26586;50.708;22.412;2023-02-01T15:50:22;35.45;;;18.08;;
40867;SDS011;26586;50.708;22.412;2023-02-01T15:52:50;29.63;;;13.65;;
40867;SDS011;26586;50.708;22.412;2023-02-01T15:55:20;21.77;;;10.73;;
40867;SDS011;26586;50.708;22.412;2023-02-01T15:57:49;38.33;;;20.20;;
40867;SDS011;26586;50.708;22.412;2023-02-01T16:00:24;37.80;;;20.00;;
40867;SDS011;26586;50.708;22.412;2023-02-01T16:02:57;43.75;;;22.77;;
40867;SDS011;26586;50.708;22.412;2023-02-01T16:08:16;53.42;;;27.75;;
40867;SDS011;26586;50.708;22.412;2023-02-01T16:10:53;66.68;;;32.53;;
40867;SDS011;26586;50.708;22.412;2023-02-01T16:13:41;54.38;;;27.25;;
40867;SDS011;26586;50.708;22.412;2023-02-01T16:16:07;42.90;;;23.50;;
40867;SDS011;26586;50.708;22.412;2023-02-01T16:18:42;42.35;;;22.70;;
40867;SDS011;26586;50.708;22.412;2023-02-01T16:21:08;37.70;;;18.65;;
40867;SDS011;26586;50.708;22.412;2023-02-01T16:23:35;34.55;;;19.13;;
40867;SDS011;26586;50.708;22.412;2023-02-01T16:26:02;24.48;;;15.45;;
40867;SDS011;26586;50.708;22.412;2023-02-01T16:28:29;32.63;;;19.90;;
40867;SDS011;26586;50.708;22.412;2023-02-01T16:30:55;41.83;;;26.48;;
40867;SDS011;26586;50.708;22.412;2023-02-01T16:33:22;81.93;;;45.55;;
40867;SDS011;26586;50.708;22.412;2023-02-01T16:35:49;89.97;;;53.00;;
40867;SDS011;26586;50.708;22.412;2023-02-01T16:38:17;38.70;;;26.10;;
40867;SDS011;26586;50.708;22.412;2023-02-01T16:40:46;32.10;;;22.73;;
40867;SDS011;26586;50.708;22.412;2023-02-01T16:45:41;13.80;;;8.55;;
40867;SDS011;26586;50.708;22.412;2023-02-01T16:48:20;12.77;;;6.85;;
40867;SDS011;26586;50.708;22.412;2023-02-01T16:50:56;8.75;;;5.65;;
40867;SDS011;26586;50.708;22.412;2023-02-01T16:53:24;11.52;;;6.05;;
40867;SDS011;26586;50.708;22.412;2023-02-01T16:55:53;16.25;;;8.52;;
40867;SDS011;26586;50.708;22.412;2023-02-01T16:58:20;11.93;;;6.63;;
40867;SDS011;26586;50.708;22.412;2023-02-01T17:00:46;14.15;;;9.30;;
40867;SDS011;26586;50.708;22.412;2023-02-01T17:03:13;16.58;;;9.82;;
40867;SDS011;26586;50.708;22.412;2023-02-01T17:05:45;16.25;;;10.57;;
40867;SDS011;26586;50.708;22.412;2023-02-01T17:08:15;10.63;;;7.70;;
40867;SDS011;26586;50.708;22.412;2023-02-01T17:10:44;14.32;;;7.70;;
40867;SDS011;26586;50.708;22.412;2023-02-01T17:13:15;22.55;;;11.23;;
40867;SDS011;26586;50.708;22.412;2023-02-01T17:16:19;15.13;;;8.25;;
40867;SDS011;26586;50.708;22.412;2023-02-01T17:18:43;34.17;;;12.25;;
40867;SDS011;26586;50.708;22.412;2023-02-01T17:21:12;27.10;;;10.68;;
40867;SDS011;26586;50.708;22.412;2023-02-01T17:23:38;43.40;;;16.67;;
40867;SDS011;26586;50.708;22.412;2023-02-01T17:26:07;54.20;;;19.17;;
40867;SDS011;26586;50.708;22.412;2023-02-01T17:28:35;75.57;;;25.25;;
40867;SDS011;26586;50.708;22.412;2023-02-01T17:31:01;62.25;;;21.80;;
40867;SDS011;26586;50.708;22.412;2023-02-01T17:33:34;85.78;;;26.33;;
40867;SDS011;26586;50.708;22.412;2023-02-01T17:36:03;41.72;;;16.55;;
40867;SDS011;26586;50.708;22.412;2023-02-01T17:38:31;62.33;;;22.23;;
40867;SDS011;26586;50.708;22.412;2023-02-01T17:40:59;85.78;;;33.50;;
40867;SDS011;26586;50.708;22.412;2023-02-01T17:43:26;76.13;;;28.67;;
40867;SDS011;26586;50.708;22.412;2023-02-01T17:48:21;55.40;;;22.23;;
40867;SDS011;26586;50.708;22.412;2023-02-01T17:50:52;39.28;;;18.30;;